Time;durP1;ratioP1;P1;durP2;ratioP2;P2;SDS_P1;SDS_P2;PMS_P1;PMS_P2;Temp;Humidity;BMP_temperature;BMP_pressure;BME280_temperature;BME280_humidity;BME280_pressure;Samples;Min_cycle;Max_cycle;Signal;HPM_P1;HPM_P2
2023/06/14 00:01:45;;;;;;;4.70;1.02;;;15.50;99.90;;;;;;4773489;30;20385;-89
2023/06/14 00:04:11;;;;;;;;;;;15.50;99.90;;;;;;4760043;30;20059;-89
2023/06/14 00:06:38;;;;;;;2.25;0.75;;;15.50;99.90;;;;;;4768528;30;19969;-89
2023/06/14 00:09:04;;;;;;;1.65;1.00;;;15.40;99.90;;;;;;4713675;30;20556;-89
2023/06/14 00:11:31;;;;;;;4.35;1.55;;;15.40;99.90;;;;;;4756874;30;20044;-89
2023/06/14 00:13:57;;;;;;;3.20;0.80;;;15.30;99.90;;;;;;4742137;30;20100;-88
2023/06/14 00:16:23;;;;;;;0.90;0.70;;;15.60;99.90;;;;;;4741515;30;20476;-90
2023/06/14 00:18:49;;;;;;;5.63;1.00;;;15.60;99.90;;;;;;4757990;30;20416;-89
2023/06/14 00:21:14;;;;;;;2.20;0.85;;;15.20;99.90;;;;;;4744787;30;20064;-89
2023/06/14 00:23:40;;;;;;;1.60;1.00;;;15.20;99.90;;;;;;4743186;30;20520;-89
2023/06/14 00:26:06;;;;;;;2.00;1.10;;;15.20;99.90;;;;;;4741893;30;20060;-89
2023/06/14 00:28:32;;;;;;;2.35;0.77;;;15.20;99.90;;;;;;4745977;30;20044;-87
2023/06/14 00:30:57;;;;;;;1.48;0.90;;;15.10;99.90;;;;;;4740439;30;20040;-88
2023/06/14 00:33:24;;;;;;;2.42;0.73;;;15.10;99.90;;;;;;4756385;30;20075;-89
2023/06/14 00:35:50;;;;;;;3.00;0.90;;;;;;;;;;4743016;30;20044;-89
2023/06/14 00:38:16;;;;;;;2.80;1.10;;;15.00;99.90;;;;;;4750289;30;20436;-89
2023/06/14 00:40:42;;;;;;;2.05;0.98;;;15.00;99.90;;;;;;4745546;30;20048;-89
2023/06/14 00:43:07;;;;;;;2.67;0.80;;;15.00;99.90;;;;;;4749333;30;20044;-89
2023/06/14 00:45:35;;;;;;;2.35;0.93;;;14.90;99.90;;;;;;4729386;30;20496;-88
2023/06/14 00:48:02;;;;;;;2.15;0.70;;;14.90;99.90;;;;;;4751015;30;20051;-89
2023/06/14 00:50:31;;;;;;;1.50;0.65;;;14.60;99.90;;;;;;4739048;30;20572;-89
2023/06/14 00:52:57;;;;;;;1.60;0.70;;;14.80;99.90;;;;;;4737451;30;20120;-90
2023/06/14 00:55:23;;;;;;;1.15;0.88;;;14.80;99.90;;;;;;4744549;30;20052;-89
2023/06/14 00:57:49;;;;;;;3.17;0.70;;;14.80;99.90;;;;;;4740176;30;20074;-89
2023/06/14 01:00:15;;;;;;;1.23;0.80;;;14.90;99.90;;;;;;4737668;30;20079;-89
2023/06/14 01:02:41;;;;;;;2.38;0.77;;;14.90;99.90;;;;;;4769355;29;20060;-89
2023/06/14 01:05:07;;;;;;;1.70;0.88;;;15.30;99.90;;;;;;4742444;30;20047;-89
2023/06/14 01:07:58;;;;;;;3.28;0.65;;;15.00;99.90;;;;;;4763054;30;20047;-89
2023/06/14 01:10:35;;;;;;;2.35;0.80;;;14.90;99.90;;;;;;4741776;30;20066;-88
2023/06/14 01:13:23;;;;;;;2.15;0.88;;;14.90;99.90;;;;;;4749528;30;20047;-90
2023/06/14 01:15:50;;;;;;;1.77;0.88;;;14.80;99.90;;;;;;4771874;30;20484;-90
2023/06/14 01:18:17;;;;;;;;;;;15.00;99.90;;;;;;4751304;29;20043;-89
2023/06/14 01:20:44;;;;;;;0.82;0.52;;;;;;;;;;4766810;30;19926;-89
2023/06/14 01:23:15;;;;;;;2.25;1.65;;;14.50;99.90;;;;;;4749995;30;20492;-89
2023/06/14 01:25:44;;;;;;;1.58;0.80;;;14.40;99.90;;;;;;4754177;30;20524;-89
2023/06/14 01:28:12;;;;;;;4.20;0.95;;;14.40;99.90;;;;;;4738906;30;20130;-89
2023/06/14 01:30:44;;;;;;;2.80;0.90;;;14.40;99.90;;;;;;4722630;30;20057;-89
2023/06/14 01:33:15;;;;;;;1.95;0.90;;;14.40;99.90;;;;;;4737866;30;20051;-89
2023/06/14 01:35:47;;;;;;;1.88;0.88;;;14.30;99.90;;;;;;4745011;30;20071;-89
2023/06/14 01:38:14;;;;;;;3.55;1.20;;;14.40;99.90;;;;;;4744379;30;20056;-89
2023/06/14 01:40:42;;;;;;;;;;;14.30;99.90;;;;;;4758602;30;20071;-89
2023/06/14 01:43:09;;;;;;;3.95;0.88;;;14.30;99.90;;;;;;4742149;30;19922;-89
2023/06/14 01:45:36;;;;;;;1.92;1.00;;;14.30;99.90;;;;;;4727656;30;20062;-89
2023/06/14 01:48:03;;;;;;;1.60;0.93;;;14.30;99.90;;;;;;4725994;30;20043;-88
2023/06/14 01:50:30;;;;;;;2.28;0.95;;;14.20;99.90;;;;;;4753021;30;20083;-87
2023/06/14 01:52:56;;;;;;;;;;;14.80;99.90;;;;;;4769211;30;20051;-89
2023/06/14 01:55:22;;;;;;;1.88;0.70;;;14.40;99.90;;;;;;4737486;30;20427;-89
2023/06/14 01:57:47;;;;;;;3.80;1.38;;;15.20;99.90;;;;;;4742355;30;20047;-88
2023/06/14 02:00:15;;;;;;;2.90;1.05;;;14.10;99.90;;;;;;4741184;30;20047;-88
2023/06/14 02:02:41;;;;;;;1.40;1.00;;;14.10;99.90;;;;;;4758972;30;20294;-88
2023/06/14 02:05:07;;;;;;;1.23;0.70;;;14.20;99.90;;;;;;4766820;30;20134;-90
2023/06/14 02:07:33;;;;;;;3.00;0.82;;;14.10;99.90;;;;;;4760474;30;20047;-89
2023/06/14 02:09:59;;;;;;;2.53;0.93;;;14.10;99.90;;;;;;4753202;30;20051;-89
2023/06/14 02:12:25;;;;;;;1.10;0.80;;;14.00;99.90;;;;;;4717869;30;20593;-88
2023/06/14 02:14:51;;;;;;;2.50;1.00;;;14.00;99.90;;;;;;4719119;30;20051;-88
2023/06/14 02:17:17;;;;;;;1.65;1.10;;;14.00;99.90;;;;;;4721944;30;20170;-89
2023/06/14 02:19:43;;;;;;;1.95;0.90;;;14.00;99.90;;;;;;4758507;30;20066;-89
2023/06/14 02:22:09;;;;;;;2.58;0.90;;;14.00;99.90;;;;;;4761789;30;20058;-89
2023/06/14 02:24:35;;;;;;;2.58;1.08;;;13.90;99.90;;;;;;4724875;30;20055;-89
2023/06/14 02:27:01;;;;;;;1.73;1.10;;;13.90;99.90;;;;;;4728573;30;20043;-89
2023/06/14 02:29:27;;;;;;;3.75;0.98;;;13.90;99.90;;;;;;4731019;30;20044;-89
2023/06/14 02:31:53;;;;;;;1.95;0.80;;;13.90;99.90;;;;;;4756549;30;20052;-88
2023/06/14 02:34:20;;;;;;;1.75;0.98;;;13.90;99.90;;;;;;4739727;30;20050;-89
2023/06/14 02:36:47;;;;;;;1.98;1.00;;;13.90;99.90;;;;;;4740046;30;20044;-90
2023/06/14 02:39:13;;;;;;;;;;;13.80;99.90;;;;;;4731458;30;20059;-89
2023/06/14 02:41:39;;;;;;;1.55;0.90;;;13.80;99.90;;;;;;4756728;30;19932;-88
2023/06/14 02:44:06;;;;;;;1.25;0.90;;;13.80;99.90;;;;;;4753809;30;20044;-87
2023/06/14 02:46:31;;;;;;;2.38;2.10;;;13.70;99.90;;;;;;4739474;30;20054;-88
2023/06/14 02:48:57;;;;;;;3.90;0.93;;;13.70;99.90;;;;;;4736533;30;20044;-87
2023/06/14 02:51:23;;;;;;;1.35;0.90;;;13.70;99.90;;;;;;4754114;30;20044;-89
2023/06/14 02:53:49;;;;;;;1.30;0.98;;;13.70;99.90;;;;;;4738972;30;20189;-88
2023/06/14 02:56:17;;;;;;;1.75;1.27;;;13.70;99.90;;;;;;4751452;30;20066;-88
2023/06/14 02:58:43;;;;;;;2.03;1.02;;;13.70;99.90;;;;;;4739188;30;20043;-88
2023/06/14 03:01:12;;;;;;;1.52;1.00;;;13.60;99.90;;;;;;4745162;30;20057;-88
2023/06/14 03:03:38;;;;;;;2.38;0.93;;;13.60;99.90;;;;;;4725100;30;20080;-89
2023/06/14 03:06:04;;;;;;;2.45;1.40;;;13.60;99.90;;;;;;4755852;30;20134;-88
2023/06/14 03:08:38;;;;;;;5.28;0.98;;;13.60;99.90;;;;;;4738636;30;20039;-88
2023/06/14 03:11:08;;;;;;;2.80;1.30;;;13.70;99.90;;;;;;4753465;30;20691;-88
2023/06/14 03:13:35;;;;;;;1.45;1.10;;;13.60;99.90;;;;;;4768933;30;20604;-88
2023/06/14 03:16:03;;;;;;;1.33;0.93;;;13.60;99.90;;;;;;4724441;30;20489;-88
2023/06/14 03:18:30;;;;;;;2.28;1.25;;;13.60;99.90;;;;;;4723978;30;20063;-88
2023/06/14 03:20:57;;;;;;;1.20;0.80;;;13.60;99.90;;;;;;4770339;30;20048;-88
2023/06/14 03:23:26;;;;;;;1.70;1.20;;;13.70;99.90;;;;;;4744981;30;20090;-87
2023/06/14 03:25:52;;;;;;;2.55;1.15;;;13.70;99.90;;;;;;4750749;30;20127;-88
2023/06/14 03:28:18;;;;;;;2.60;1.20;;;13.70;99.90;;;;;;4752333;30;20680;-87
2023/06/14 03:30:44;;;;;;;2.78;1.40;;;13.80;99.90;;;;;;4745612;30;20044;-88
2023/06/14 03:33:10;;;;;;;1.95;1.05;;;13.80;99.90;;;;;;4750003;30;20048;-87
2023/06/14 03:35:36;;;;;;;2.13;1.50;;;13.80;99.90;;;;;;4758003;30;20056;-88
2023/06/14 03:38:02;;;;;;;1.35;0.93;;;13.90;99.90;;;;;;4741652;30;20062;-87
2023/06/14 03:40:28;;;;;;;3.63;1.73;;;13.90;99.90;;;;;;4755722;30;20048;-88
2023/06/14 03:42:54;;;;;;;3.58;1.58;;;13.90;99.90;;;;;;4735907;30;20074;-88
2023/06/14 03:45:20;;;;;;;2.27;1.30;;;14.00;99.90;;;;;;4723345;30;20135;-88
2023/06/14 03:47:46;;;;;;;3.35;1.35;;;14.00;99.90;;;;;;4749421;30;20577;-87
2023/06/14 03:50:12;;;;;;;2.30;1.13;;;14.10;99.90;;;;;;4753979;30;20478;-88
2023/06/14 03:52:38;;;;;;;3.17;1.20;;;14.10;99.90;;;;;;4754011;30;20116;-87
2023/06/14 03:55:05;;;;;;;1.67;1.25;;;14.20;99.90;;;;;;4775792;30;20051;-86
2023/06/14 03:57:30;;;;;;;2.80;1.48;;;14.20;99.90;;;;;;4742239;30;20048;-87
2023/06/14 03:59:57;;;;;;;1.95;1.30;;;14.30;99.90;;;;;;4754229;30;20464;-88
2023/06/14 04:02:22;;;;;;;2.30;1.20;;;14.30;99.90;;;;;;4762778;30;20082;-88
2023/06/14 04:04:49;;;;;;;1.92;1.20;;;14.40;99.90;;;;;;4752506;30;20075;-88
2023/06/14 04:07:20;;;;;;;2.33;1.57;;;14.40;99.90;;;;;;4753370;30;20035;-88
2023/06/14 04:09:46;;;;;;;2.75;1.50;;;14.40;99.90;;;;;;4726685;30;20056;-86
2023/06/14 04:12:12;;;;;;;4.63;1.50;;;14.50;99.90;;;;;;4723975;30;20516;-87
2023/06/14 04:14:40;;;;;;;3.35;1.30;;;14.50;99.90;;;;;;4739707;30;20549;-88
2023/06/14 04:17:06;;;;;;;3.63;1.30;;;14.60;99.90;;;;;;4743641;30;20302;-89
2023/06/14 04:19:32;;;;;;;4.57;1.75;;;14.60;99.90;;;;;;4774808;29;20039;-89
2023/06/14 04:22:01;;;;;;;5.10;1.50;;;14.70;99.90;;;;;;4735409;30;20047;-88
2023/06/14 04:24:31;;;;;;;3.30;1.55;;;14.70;99.90;;;;;;4750047;30;20504;-87
2023/06/14 04:26:58;;;;;;;2.45;1.75;;;14.70;99.90;;;;;;4747181;30;20079;-89
2023/06/14 04:29:26;;;;;;;3.88;1.95;;;14.70;99.90;;;;;;4741490;30;20077;-88
2023/06/14 04:31:54;;;;;;;3.83;1.63;;;14.80;99.90;;;;;;4761168;30;20051;-89
2023/06/14 04:34:21;;;;;;;2.13;1.63;;;14.80;99.90;;;;;;4746509;30;20130;-89
2023/06/14 04:36:52;;;;;;;3.50;1.70;;;14.80;99.90;;;;;;4740902;30;20059;-89
2023/06/14 04:39:19;;;;;;;5.32;1.60;;;14.90;99.90;;;;;;4726897;30;20067;-89
2023/06/14 04:41:45;;;;;;;3.63;1.52;;;14.90;99.90;;;;;;4741093;30;20051;-88
2023/06/14 04:44:12;;;;;;;3.17;1.40;;;14.90;99.90;;;;;;4739950;30;20043;-85
2023/06/14 04:46:45;;;;;;;;;;;15.00;99.90;;;;;;4741239;30;20128;-86
2023/06/14 04:49:18;;;;;;;3.80;1.70;;;15.00;99.90;;;;;;4767684;30;19922;-89
2023/06/14 04:51:45;;;;;;;4.88;1.90;;;15.00;99.90;;;;;;4738208;30;20144;-85
2023/06/14 04:54:14;;;;;;;2.30;1.50;;;15.10;99.90;;;;;;4741305;30;20381;-87
2023/06/14 04:56:43;;;;;;;5.18;1.90;;;15.10;99.90;;;;;;4757493;30;20059;-86
2023/06/14 04:59:12;;;;;;;3.33;1.52;;;15.20;99.90;;;;;;4736453;30;20060;-87
2023/06/14 05:01:38;;;;;;;4.65;1.70;;;15.20;99.90;;;;;;4756306;30;20051;-90
2023/06/14 05:04:04;;;;;;;2.00;1.60;;;15.30;99.90;;;;;;4771444;30;20062;-86
2023/06/14 05:06:30;;;;;;;3.45;1.60;;;15.30;99.90;;;;;;4754852;30;20049;-87
2023/06/14 05:08:56;;;;;;;2.95;1.63;;;15.40;99.90;;;;;;4750113;29;20080;-88
2023/06/14 05:11:26;;;;;;;5.28;1.70;;;15.50;99.90;;;;;;4763092;29;20267;-87
2023/06/14 05:13:52;;;;;;;3.00;1.65;;;15.50;99.90;;;;;;4760746;29;20067;-88
2023/06/14 05:16:19;;;;;;;4.43;1.70;;;15.60;99.90;;;;;;4746905;29;20020;-83
2023/06/14 05:18:47;;;;;;;5.32;1.88;;;15.70;99.90;;;;;;4732741;30;20113;-88
2023/06/14 05:21:13;;;;;;;4.82;1.65;;;15.80;99.90;;;;;;4712358;30;20134;-86
2023/06/14 05:23:38;;;;;;;3.20;1.65;;;15.90;99.90;;;;;;4742543;30;20130;-87
2023/06/14 05:26:06;;;;;;;4.43;1.70;;;15.90;99.90;;;;;;4722572;30;20065;-86
2023/06/14 05:28:32;;;;;;;2.17;1.60;;;16.00;99.90;;;;;;4738376;30;20059;-84
2023/06/14 05:30:58;;;;;;;3.63;1.75;;;16.00;99.90;;;;;;4753648;30;20043;-85
2023/06/14 05:33:23;;;;;;;4.53;2.03;;;16.10;99.90;;;;;;4740274;30;20541;-85
2023/06/14 05:35:49;;;;;;;2.90;1.60;;;16.20;99.90;;;;;;4721716;30;20051;-86
2023/06/14 05:38:15;;;;;;;1.88;1.40;;;16.20;99.90;;;;;;4738963;30;20456;-87
2023/06/14 05:40:41;;;;;;;4.30;1.80;;;16.40;99.90;;;;;;4751613;30;20101;-86
2023/06/14 05:43:06;;;;;;;4.70;2.38;;;16.40;99.90;;;;;;4740625;30;20043;-87
2023/06/14 05:45:32;;;;;;;2.30;1.70;;;16.60;99.90;;;;;;4729257;30;20109;-86
2023/06/14 05:47:58;;;;;;;3.28;1.70;;;16.60;99.90;;;;;;4735671;30;20047;-88
2023/06/14 05:50:24;;;;;;;2.45;1.75;;;16.80;99.90;;;;;;4755460;30;20051;-86
2023/06/14 05:52:49;;;;;;;2.35;1.50;;;17.40;99.90;;;;;;4728546;30;20794;-86
2023/06/14 05:55:16;;;;;;;3.35;1.90;;;18.40;99.90;;;;;;4752518;30;20069;-85
2023/06/14 05:57:42;;;;;;;4.15;1.50;;;19.10;99.90;;;;;;4737585;30;20055;-89
2023/06/14 06:00:14;;;;;;;3.33;1.95;;;20.00;99.90;;;;;;4752753;30;20484;-87
2023/06/14 06:02:43;;;;;;;3.78;1.73;;;20.30;99.90;;;;;;4756260;30;20054;-89
2023/06/14 06:05:12;;;;;;;3.85;1.90;;;19.80;99.90;;;;;;4748736;30;20407;-87
2023/06/14 06:07:40;;;;;;;4.82;2.20;;;19.30;99.90;;;;;;4749151;30;20043;-87
2023/06/14 06:10:06;;;;;;;3.55;1.52;;;19.00;99.90;;;;;;4751456;30;20048;-86
2023/06/14 06:12:32;;;;;;;2.80;1.75;;;19.00;99.90;;;;;;4757129;30;20039;-88
2023/06/14 06:14:59;;;;;;;2.80;1.70;;;19.20;99.90;;;;;;4737038;30;20044;-89
2023/06/14 06:17:25;;;;;;;3.03;1.65;;;19.30;99.90;;;;;;4762549;29;20031;-87
2023/06/14 06:19:51;;;;;;;2.67;1.38;;;19.60;99.90;;;;;;4759803;29;20036;-86
2023/06/14 06:22:17;;;;;;;4.18;1.70;;;19.60;99.90;;;;;;4760197;29;20038;-89
2023/06/14 06:24:43;;;;;;;2.97;1.63;;;19.70;99.90;;;;;;4772531;29;20115;-87
2023/06/14 06:27:09;;;;;;;3.58;1.55;;;19.60;99.90;;;;;;4760162;29;20047;-85
2023/06/14 06:29:35;;;;;;;4.85;1.48;;;19.40;99.90;;;;;;4738588;30;20059;-86
2023/06/14 06:32:01;;;;;;;3.57;1.57;;;19.20;99.90;;;;;;4750658;30;20039;-86
2023/06/14 06:34:27;;;;;;;6.17;1.50;;;19.10;99.90;;;;;;4760071;30;20597;-88
2023/06/14 06:36:53;;;;;;;4.00;1.40;;;19.00;99.90;;;;;;4756892;30;20475;-85
2023/06/14 06:39:21;;;;;;;2.83;1.45;;;18.90;99.90;;;;;;4738490;30;20044;-90
2023/06/14 06:41:47;;;;;;;3.15;1.25;;;18.90;99.90;;;;;;4755419;30;20036;-88
2023/06/14 06:44:13;;;;;;;2.15;1.25;;;19.00;99.90;;;;;;4738959;30;20050;-88
2023/06/14 06:46:40;;;;;;;3.45;1.40;;;19.00;99.90;;;;;;4722336;30;20102;-88
2023/06/14 06:49:07;;;;;;;10.73;1.58;;;19.10;99.90;;;;;;4778101;30;20062;-84
2023/06/14 06:51:34;;;;;;;3.83;1.33;;;19.30;99.90;;;;;;4734769;30;20054;-86
2023/06/14 06:54:00;;;;;;;;;;;19.60;99.90;;;;;;4723082;30;20083;-86
2023/06/14 06:56:26;;;;;;;5.03;1.48;;;20.20;99.90;;;;;;4719431;30;19926;-87
2023/06/14 06:58:52;;;;;;;3.72;1.35;;;21.30;99.90;;;;;;4734991;30;20515;-86
2023/06/14 07:01:21;;;;;;;2.95;1.50;;;22.30;99.90;;;;;;4715034;30;20036;-86
2023/06/14 07:03:47;;;;;;;2.38;1.40;;;23.10;99.90;;;;;;4745211;30;20055;-86
2023/06/14 07:06:12;;;;;;;2.58;1.30;;;23.50;99.90;;;;;;4752208;30;20500;-85
2023/06/14 07:08:38;;;;;;;1.98;1.13;;;23.90;99.90;;;;;;4736252;30;20523;-87
2023/06/14 07:11:05;;;;;;;1.90;1.00;;;24.30;99.80;;;;;;4754831;30;20075;-87
2023/06/14 07:13:31;;;;;;;4.05;1.10;;;24.50;95.80;;;;;;4775760;29;20080;-84
2023/06/14 07:16:00;;;;;;;1.23;0.90;;;24.80;93.20;;;;;;4766752;30;20048;-87
2023/06/14 07:18:27;;;;;;;3.50;1.10;;;25.10;91.80;;;;;;4765409;29;20048;-85
2023/06/14 07:20:53;;;;;;;1.55;1.13;;;25.50;90.40;;;;;;4720447;30;20047;-86
2023/06/14 07:23:20;;;;;;;;;;;25.60;87.00;;;;;;4754832;30;20118;-86
2023/06/14 07:25:46;;;;;;;2.72;1.13;;;25.40;85.90;;;;;;4749280;30;20085;-86
2023/06/14 07:28:12;;;;;;;2.58;1.23;;;25.50;86.30;;;;;;4753936;30;20408;-86
2023/06/14 07:30:38;;;;;;;2.47;1.30;;;25.60;83.80;;;;;;4743448;30;20051;-88
2023/06/14 07:33:04;;;;;;;4.53;1.20;;;25.80;82.70;;;;;;4745499;29;20048;-86
2023/06/14 07:35:29;;;;;;;5.20;1.20;;;25.80;81.00;;;;;;4767621;29;20038;-86
2023/06/14 07:37:55;;;;;;;1.67;0.83;;;25.70;79.30;;;;;;4761803;29;20055;-87
2023/06/14 07:40:21;;;;;;;2.60;1.07;;;25.50;78.70;;;;;;4758336;29;20175;-86
2023/06/14 07:42:47;;;;;;;2.73;1.23;;;25.90;79.40;;;;;;4766630;29;20561;-87
2023/06/14 07:45:16;;;;;;;3.00;0.90;;;26.10;77.80;;;;;;4778401;30;20192;-86
2023/06/14 07:47:42;;;;;;;2.70;0.93;;;26.00;75.70;;;;;;4758382;30;20090;-86
2023/06/14 07:50:08;;;;;;;2.67;1.08;;;26.00;77.20;;;;;;4751161;30;20071;-87
2023/06/14 07:52:34;;;;;;;2.22;1.08;;;26.50;76.40;;;;;;4740422;30;20055;-87
2023/06/14 07:55:00;;;;;;;1.97;1.07;;;26.40;73.50;;;;;;4737188;30;20109;-85
2023/06/14 07:57:26;;;;;;;3.00;1.10;;;26.40;73.40;;;;;;4758544;30;20043;-86
2023/06/14 07:59:52;;;;;;;3.67;1.10;;;26.10;72.10;;;;;;4742851;30;20048;-86
2023/06/14 08:02:18;;;;;;;1.73;0.88;;;26.20;72.30;;;;;;4721248;30;20052;-87
2023/06/14 08:04:44;;;;;;;1.80;1.00;;;26.40;72.70;;;;;;4753293;30;20082;-87
2023/06/14 08:07:10;;;;;;;3.73;1.00;;;26.50;72.90;;;;;;4744033;30;20484;-86
2023/06/14 08:09:38;;;;;;;1.83;0.90;;;26.50;72.30;;;;;;4747190;30;20086;-86
2023/06/14 08:12:07;;;;;;;3.85;1.23;;;26.30;71.30;;;;;;4739628;30;20048;-87
2023/06/14 08:14:33;;;;;;;2.65;1.05;;;26.00;70.30;;;;;;4734104;30;20174;-86
2023/06/14 08:16:59;;;;;;;2.85;1.00;;;25.90;71.00;;;;;;4741862;30;20051;-86
2023/06/14 08:19:25;;;;;;;4.30;0.97;;;25.60;70.40;;;;;;4756756;29;20043;-86
2023/06/14 08:21:51;;;;;;;1.40;1.00;;;25.50;70.10;;;;;;4727119;30;20477;-86
2023/06/14 08:24:18;;;;;;;4.30;1.20;;;25.30;69.50;;;;;;4744145;30;20462;-86
2023/06/14 08:26:44;;;;;;;2.53;1.00;;;25.10;71.10;;;;;;4733657;30;20047;-86
2023/06/14 08:29:10;;;;;;;1.67;1.00;;;25.00;70.00;;;;;;4739343;30;20043;-86
2023/06/14 08:31:36;;;;;;;1.17;0.88;;;24.90;71.20;;;;;;4755464;30;20515;-87
2023/06/14 08:34:01;;;;;;;2.90;1.20;;;24.80;72.20;;;;;;4739044;30;20044;-86
2023/06/14 08:36:27;;;;;;;1.77;0.87;;;24.80;71.90;;;;;;4738118;30;20044;-86
2023/06/14 08:38:53;;;;;;;3.07;1.10;;;24.70;71.60;;;;;;4739310;30;20583;-87
2023/06/14 08:41:24;;;;;;;1.30;0.93;;;24.70;71.60;;;;;;4728863;30;20047;-85
2023/06/14 08:43:50;;;;;;;2.38;1.00;;;24.60;71.80;;;;;;4756997;30;20055;-86
2023/06/14 08:46:20;;;;;;;3.17;1.13;;;24.70;72.20;;;;;;4726568;30;20048;-87
2023/06/14 08:48:49;;;;;;;2.03;1.17;;;24.90;71.10;;;;;;4761652;30;20532;-86
2023/06/14 08:51:22;;;;;;;5.18;1.30;;;25.10;70.80;;;;;;4750423;30;20047;-88
2023/06/14 08:53:58;;;;;;;3.30;1.00;;;25.00;70.70;;;;;;4743343;30;20054;-87
2023/06/14 08:56:31;;;;;;;2.20;0.90;;;24.70;71.40;;;;;;4773682;29;20044;-86
2023/06/14 08:59:03;;;;;;;2.70;1.40;;;24.90;73.00;;;;;;4776668;29;20423;-87
2023/06/14 09:01:34;;;;;;;2.95;1.10;;;25.10;71.60;;;;;;4774016;29;20039;-86
2023/06/14 09:04:00;;;;;;;4.07;1.08;;;25.10;71.10;;;;;;4762784;29;20044;-89
2023/06/14 09:06:27;;;;;;;2.30;0.97;;;25.00;70.70;;;;;;4763060;29;20050;-88
2023/06/14 09:08:55;;;;;;;2.45;1.25;;;24.90;70.60;;;;;;4729710;29;20074;-83
2023/06/14 09:11:22;;;;;;;3.17;1.10;;;24.90;70.70;;;;;;4758120;30;20131;-90
2023/06/14 09:13:49;;;;;;;1.80;1.00;;;24.90;71.10;;;;;;4728187;30;20186;-87
2023/06/14 09:16:16;;;;;;;3.38;1.30;;;24.90;71.10;;;;;;4748155;30;20053;-88
2023/06/14 09:18:47;;;;;;;3.97;1.25;;;24.90;71.20;;;;;;4743870;30;20044;-84
2023/06/14 09:21:14;;;;;;;1.70;1.02;;;24.80;72.20;;;;;;4759665;30;20086;-84
2023/06/14 09:23:45;;;;;;;2.63;0.95;;;24.80;72.00;;;;;;4740174;30;20056;-84
2023/06/14 09:26:17;;;;;;;3.35;1.30;;;24.90;71.20;;;;;;4766325;29;20063;-84
2023/06/14 09:28:48;;;;;;;1.73;0.90;;;24.90;70.90;;;;;;4733746;30;20096;-84
2023/06/14 09:31:15;;;;;;;6.15;1.23;;;24.70;70.80;;;;;;4750600;30;20614;-84
2023/06/14 09:33:51;;;;;;;1.95;0.95;;;24.80;71.00;;;;;;4725174;30;20043;-85
2023/06/14 09:36:22;;;;;;;3.25;1.20;;;24.80;70.70;;;;;;4751225;30;20043;-84
2023/06/14 09:39:08;;;;;;;1.35;0.93;;;24.90;70.70;;;;;;4752143;30;20052;-87
2023/06/14 09:41:40;;;;;;;3.30;1.17;;;24.80;70.80;;;;;;4769720;29;20143;-85
2023/06/14 09:44:11;;;;;;;2.58;0.90;;;25.00;71.10;;;;;;4755704;30;20507;-88
2023/06/14 09:46:38;;;;;;;2.80;0.82;;;25.20;70.90;;;;;;4752798;30;20148;-86
2023/06/14 09:49:05;;;;;;;3.50;1.13;;;25.20;68.90;;;;;;4760870;30;20054;-85
2023/06/14 09:51:31;;;;;;;2.55;1.20;;;25.20;68.90;;;;;;4722807;30;20048;-85
2023/06/14 09:54:06;;;;;;;2.37;1.10;;;25.30;68.70;;;;;;4747498;30;20047;-85
2023/06/14 09:56:36;;;;;;;3.92;1.10;;;25.10;67.40;;;;;;4752184;30;20397;-85
2023/06/14 09:59:05;;;;;;;1.95;1.10;;;25.00;67.30;;;;;;4753453;30;20055;-84
2023/06/14 10:01:32;;;;;;;1.92;0.90;;;24.90;67.30;;;;;;4760570;30;20063;-86
2023/06/14 10:04:07;;;;;;;1.90;0.90;;;24.90;67.90;;;;;;4743995;30;20048;-86
2023/06/14 10:06:37;;;;;;;3.08;1.00;;;24.80;68.30;;;;;;4755454;30;20460;-85
2023/06/14 10:09:05;;;;;;;5.45;1.00;;;25.00;69.00;;;;;;4732486;30;20131;-85
2023/06/14 10:11:31;;;;;;;1.52;0.70;;;25.10;68.50;;;;;;4766734;30;20151;-86
2023/06/14 10:13:58;;;;;;;2.47;0.80;;;25.30;68.30;;;;;;4726544;30;20117;-84
2023/06/14 10:16:24;;;;;;;;;;;25.40;68.00;;;;;;4754691;30;20043;-86
2023/06/14 10:19:00;;;;;;;3.60;0.80;;;25.60;67.70;;;;;;4753849;30;19932;-85
2023/06/14 10:21:53;;;;;;;1.92;0.95;;;25.70;68.00;;;;;;4757922;30;20039;-87
2023/06/14 10:24:25;;;;;;;3.60;0.90;;;25.80;67.10;;;;;;4787004;29;20038;-90
2023/06/14 10:26:54;;;;;;;1.75;0.95;;;25.70;67.00;;;;;;4777437;29;20101;-88
2023/06/14 10:29:20;;;;;;;3.33;0.90;;;25.60;66.90;;;;;;4773776;29;20095;-89
2023/06/14 10:31:48;;;;;;;9.53;1.17;;;25.60;66.50;;;;;;4759395;29;20055;-88
2023/06/14 10:34:28;;;;;;;5.22;1.00;;;25.60;66.30;;;;;;4774327;29;20031;-88
2023/06/14 10:37:20;;;;;;;2.58;0.95;;;25.60;66.70;;;;;;4771306;29;20052;-86
2023/06/14 10:39:46;;;;;;;2.50;0.85;;;25.50;66.80;;;;;;4766844;30;20044;-87
2023/06/14 10:42:13;;;;;;;3.85;0.90;;;25.60;66.80;;;;;;4739923;30;20040;-86
2023/06/14 10:44:53;;;;;;;3.03;1.00;;;25.50;66.30;;;;;;4724324;30;20077;-88
2023/06/14 10:47:35;;;;;;;3.72;1.15;;;25.40;67.00;;;;;;4759071;30;20058;-89
2023/06/14 10:50:14;;;;;;;2.28;0.90;;;25.40;67.80;;;;;;4758386;30;20480;-88
2023/06/14 10:52:43;;;;;;;1.27;0.70;;;25.60;66.50;;;;;;4728446;30;20066;-86
2023/06/14 10:55:14;;;;;;;2.50;0.85;;;25.60;66.80;;;;;;4752109;30;20055;-87
2023/06/14 10:57:42;;;;;;;3.42;0.90;;;25.40;66.30;;;;;;4757839;30;20044;-87
2023/06/14 11:00:13;;;;;;;5.57;0.90;;;25.50;67.00;;;;;;4745452;30;20100;-86
2023/06/14 11:03:10;;;;;;;2.60;0.98;;;25.60;66.80;;;;;;4752352;30;20070;-88
2023/06/14 11:05:56;;;;;;;3.88;1.05;;;25.50;65.20;;;;;;4752308;30;20052;-86
2023/06/14 11:08:40;;;;;;;4.65;1.00;;;25.70;67.20;;;;;;4748856;30;20349;-86
2023/06/14 11:11:07;;;;;;;1.52;0.82;;;25.80;66.00;;;;;;4774721;30;20117;-87
2023/06/14 11:13:33;;;;;;;2.53;0.82;;;25.70;65.20;;;;;;4731242;30;20110;-86
2023/06/14 11:16:00;;;;;;;2.73;1.00;;;25.70;64.70;;;;;;4752595;30;20056;-89
2023/06/14 11:18:27;;;;;;;2.47;0.80;;;25.50;65.20;;;;;;4737753;30;20075;-87
2023/06/14 11:20:53;;;;;;;0.60;0.52;;;25.50;65.90;;;;;;4747588;30;20048;-85
2023/06/14 11:23:21;;;;;;;2.20;0.85;;;25.50;66.20;;;;;;4753841;30;20051;-88
2023/06/14 11:25:53;;;;;;;3.53;0.80;;;25.50;65.90;;;;;;4745905;30;20617;-86
2023/06/14 11:28:21;;;;;;;1.98;0.90;;;25.50;66.00;;;;;;4739446;30;20113;-87
2023/06/14 11:30:47;;;;;;;1.65;1.13;;;25.40;65.60;;;;;;4773741;30;20109;-87
2023/06/14 11:33:20;;;;;;;2.95;0.93;;;25.50;65.90;;;;;;4750830;30;20040;-86
2023/06/14 11:35:46;;;;;;;3.47;0.60;;;25.60;65.20;;;;;;4771178;30;20048;-89
2023/06/14 11:38:12;;;;;;;2.40;0.80;;;25.50;64.20;;;;;;4738960;30;20054;-87
2023/06/14 11:40:41;;;;;;;1.30;0.77;;;25.70;64.80;;;;;;4764460;30;20944;-89
2023/06/14 11:43:06;;;;;;;0.83;0.50;;;26.00;65.00;;;;;;4761020;30;20062;-89
2023/06/14 11:45:32;;;;;;;1.87;0.60;;;26.00;63.70;;;;;;4741039;30;20677;-90
2023/06/14 11:47:59;;;;;;;1.07;0.60;;;25.80;62.80;;;;;;4731767;30;20048;-88
2023/06/14 11:50:26;;;;;;;1.88;0.90;;;25.70;63.70;;;;;;4783302;30;20472;-86
2023/06/14 11:53:06;;;;;;;1.60;0.60;;;25.70;63.80;;;;;;4762816;30;20044;-87
2023/06/14 11:55:35;;;;;;;1.60;0.80;;;25.80;63.70;;;;;;4774251;29;20032;-85
2023/06/14 11:58:02;;;;;;;1.30;0.60;;;25.70;62.30;;;;;;4797750;29;20080;-86
2023/06/14 12:00:28;;;;;;;3.17;0.90;;;25.70;63.10;;;;;;4798762;29;20063;-87
2023/06/14 12:02:56;;;;;;;1.20;0.70;;;25.70;62.90;;;;;;4773654;29;20040;-88
2023/06/14 12:05:22;;;;;;;1.45;0.57;;;25.80;63.60;;;;;;4781616;29;20248;-87
2023/06/14 12:07:48;;;;;;;1.83;0.52;;;25.70;63.00;;;;;;4756998;29;20043;-87
2023/06/14 12:10:14;;;;;;;1.95;0.70;;;25.70;63.20;;;;;;4759728;29;20071;-85
2023/06/14 12:12:40;;;;;;;2.27;0.40;;;25.70;63.10;;;;;;4739962;30;20040;-87
2023/06/14 12:15:12;;;;;;;1.80;0.60;;;25.80;63.10;;;;;;4754482;30;20473;-89
2023/06/14 12:17:41;;;;;;;0.82;0.50;;;25.80;62.90;;;;;;4713314;30;20560;-91
2023/06/14 12:20:13;;;;;;;1.85;0.80;;;25.70;63.30;;;;;;4758773;30;20051;-87
2023/06/14 12:22:53;;;;;;;1.13;0.52;;;25.80;63.30;;;;;;4753608;30;20105;-88
2023/06/14 12:25:32;;;;;;;4.68;0.65;;;25.90;62.00;;;;;;4772077;29;20085;-87
2023/06/14 12:27:59;;;;;;;9.93;1.33;;;25.70;62.60;;;;;;4741339;30;20044;-87
2023/06/14 12:30:25;;;;;;;0.75;0.60;;;25.40;61.80;;;;;;4759519;30;20192;-87
2023/06/14 12:32:51;;;;;;;3.00;0.50;;;25.30;62.60;;;;;;4755686;30;20043;-89
2023/06/14 12:35:18;;;;;;;1.83;0.70;;;25.20;63.40;;;;;;4730736;30;20071;-86
2023/06/14 12:37:45;;;;;;;0.77;0.45;;;25.20;63.40;;;;;;4749704;30;20051;-87
2023/06/14 12:40:12;;;;;;;4.00;0.82;;;25.10;62.40;;;;;;4739329;30;20047;-88
2023/06/14 12:42:37;;;;;;;1.40;0.52;;;24.90;62.10;;;;;;4758460;30;20044;-91
2023/06/14 12:45:06;;;;;;;1.02;0.68;;;24.90;63.30;;;;;;4761733;30;20141;-90
2023/06/14 12:47:32;;;;;;;0.77;0.50;;;24.90;63.40;;;;;;4734173;30;20044;-90
2023/06/14 12:49:58;;;;;;;3.20;0.70;;;25.10;64.10;;;;;;4729636;30;20052;-90
2023/06/14 12:52:24;;;;;;;1.10;0.63;;;25.20;64.50;;;;;;4753132;30;20078;-89
2023/06/14 12:54:50;;;;;;;2.07;0.60;;;25.20;63.90;;;;;;4769372;30;20126;-90